Date StartTime U_cm/s V_cm/s W_cm/s Ustd_cm/s Vstd_cm/s Wstd_cm/s Uvar_(cm/s)^2 Vvar_(cm/s)^2 Wvar_(cm/s)^2 KE_(m/s)^2 TurbulentKE_(m/s)^2 HorizWindSpeed_cm/s FrictionSpeec_cm/s DragCoef SpeedOfSound_m/s SonicTemperature_C Pressure_mb 
08/19/2014  00:00:00       58.108       74.823       42.274       60.555       59.339       40.204     3666.884     3521.086     1616.352        0.978        0.440       94.737       17.031        0.032      345.289       22.713      857.971
08/19/2014  00:01:00       -9.448       32.563       -6.594       51.007       70.832       21.949     2601.756     5017.120      481.769        0.465        0.405       33.906       33.730        0.990      345.253       22.652      857.988
08/19/2014  00:02:00      -39.052       22.056       -6.766       28.082       39.701       19.426      788.623     1576.200      377.360        0.240        0.137       44.851       23.010        0.263      345.090       22.374      858.039
08/19/2014  00:03:00      -20.503       35.275       -3.662       30.783       48.052       20.712      947.619     2309.036      428.977        0.268        0.184       40.801       22.166        0.295      345.049       22.302      858.037
08/19/2014  00:04:00      -85.794      118.843      -12.457       46.370       55.483       36.596     2150.136     3078.354     1339.277        1.410        0.328      146.575       32.982        0.051      345.229       22.609      858.038
08/19/2014  00:05:00      -15.424      125.697      -23.862       27.854       45.277       19.445      775.828     2050.017      378.110        0.990        0.160      126.640       16.042        0.016      345.271       22.681      858.019
08/19/2014  00:06:00      -45.074      123.489      -18.587       57.659       42.314       26.014     3324.568     1790.514      676.746        1.171        0.290      131.458       21.370        0.026      345.170       22.509      858.045
08/19/2014  00:07:00      -23.831      162.163      -32.462       54.404       38.277       25.131     2959.825     1465.153      631.544        1.649        0.253      163.905       17.588        0.012      345.216       22.587      858.047
08/19/2014  00:08:00      -80.455       75.025      -10.976       74.915       82.223       30.799     5612.209     6760.597      948.567        1.277        0.666      110.008       29.926        0.074      345.170       22.508      858.064
08/19/2014  00:09:00     -120.899      119.117      -24.943       65.090       78.373       39.511     4236.700     6142.334     1561.141        2.068        0.597      169.722       41.372        0.059      345.330       22.781      858.084
08/19/2014  00:10:00      -91.551      145.100      -24.217       51.955       55.632       32.832     2699.278     3094.971     1077.959        1.845        0.344      171.568       38.183        0.050      345.324       22.771      858.099
08/19/2014  00:11:00     -100.457      129.190      -19.887       48.352       60.465       30.815     2337.875     3656.020      949.582        1.706        0.347      163.652       27.599        0.028      345.334       22.789      858.103
08/19/2014  00:12:00      -70.577      101.098      -19.597       35.704       42.018       21.092     1274.781     1765.545      444.893        0.953        0.174      123.296       19.311        0.025      345.338       22.797      858.100
08/19/2014  00:13:00     -109.309       76.717      -19.266       42.453       53.976       33.899     1802.274     2913.417     1149.137        1.203        0.293      133.544       32.124        0.058      345.271       22.682      858.103
08/19/2014  00:14:00      -51.932      150.507      -18.905       39.504       46.007       25.208     1560.582     2116.648      635.419        1.501        0.216      159.214       22.104        0.019      345.196       22.553      858.096
08/19/2014  00:15:00       -2.633      150.973      -22.816       32.357       45.093       23.061     1046.962     2033.336      531.810        1.347        0.181      150.996       21.961        0.021      345.189       22.542      858.071
08/19/2014  00:16:00      -18.708      156.129      -19.732       56.891       59.463       29.999     3236.602     3535.899      899.933        1.639        0.384      157.246       21.100        0.018      345.167       22.502      858.068
08/19/2014  00:17:00      -59.957      163.195      -32.167       50.550       55.224       36.602     2555.266     3049.655     1339.692        1.910        0.347      173.861       29.196        0.028      345.322       22.769      858.081
08/19/2014  00:18:00      -66.144      110.782       -5.728       44.689       82.628       30.635     1997.137     6827.323      938.506        1.322        0.488      129.026       38.781        0.090      345.232       22.614      858.084
08/19/2014  00:19:00     -171.382      -12.259      -16.521       40.821       65.973       24.312     1666.339     4352.491      591.064        1.820        0.330      171.819       18.342        0.011      345.145       22.467      858.098
08/19/2014  00:20:00     -135.736      134.904      -37.008       44.880       46.225       28.376     2014.209     2136.734      805.219        2.147        0.248      191.372       25.069        0.017      345.369       22.848      858.090
08/19/2014  00:21:00     -118.796       81.342      -17.979       49.834       48.734       29.483     2483.402     2374.956      869.256        1.339        0.286      143.975       23.889        0.028      345.194       22.550      858.074
08/19/2014  00:22:00     -102.886      -21.213      -10.666       35.871       38.923       23.049     1286.726     1515.036      531.272        0.724        0.167      105.050       16.535        0.025      345.236       22.622      858.073
08/19/2014  00:23:00      -75.642       20.747      -12.149       36.924       27.793       17.908     1363.361      772.476      320.710        0.438        0.123       78.436       10.023        0.016      345.198       22.557      858.069
08/19/2014  00:24:00      -74.380       70.044       -7.291       54.148       47.042       29.122     2932.015     2212.989      848.093        0.824        0.300      102.169       27.907        0.075      345.144       22.464      858.065
08/19/2014  00:25:00      -81.432      187.370      -26.311       57.001       58.764       32.247     3249.171     3453.169     1039.896        2.509        0.387      204.301       17.405        0.007      345.210       22.574      858.034
08/19/2014  00:26:00     -121.013      130.458      -22.790       76.908       67.953       40.546     5914.779     4617.612     1644.002        2.218        0.609      177.942       38.015        0.046      345.136       22.450      858.029
08/19/2014  00:27:00      -77.375      257.303      -26.839       70.747       81.972       36.270     5005.187     6719.380     1315.538        4.297        0.652      268.685       40.105        0.022      345.130       22.436      858.015
08/19/2014  00:28:00     -121.218       51.604      -11.249       54.046       56.666       32.530     2920.943     3210.981     1058.209        1.234        0.360      131.745       23.988        0.033      345.120       22.422      858.024
08/19/2014  00:29:00     -135.643      -46.534       -8.405       50.445       32.844       21.698     2544.694     1078.748      470.822        1.236        0.205      143.403       19.602        0.019      345.047       22.299      858.049
08/19/2014  00:30:00      -69.044       -9.477       -1.406       58.031       28.862       20.606     3367.611      833.021      424.589        0.474        0.231       69.691       25.588        0.135      344.986       22.195      858.036
08/19/2014  00:31:00     -201.817      -28.292      -14.257       62.642       41.766       33.124     3924.017     1744.440     1097.222        2.425        0.338      203.791       24.618        0.015      345.015       22.243      858.027
08/19/2014  00:32:00      -72.764        6.765       -3.571       74.803       53.338       25.819     5595.470     2844.955      666.598        0.723        0.455       73.078       26.710        0.134      344.892       22.034      858.008
08/19/2014  00:33:00     -104.127      -13.186       -5.562       32.039       37.871       25.860     1026.503     1434.209      668.742        0.709        0.156      104.959       23.649        0.051      345.149       22.472      857.991
08/19/2014  00:34:00     -104.925       -1.728       -9.815       49.019       44.874       25.051     2402.891     2013.664      627.531        0.808        0.252      104.939       19.622        0.035      345.092       22.375      857.996
08/19/2014  00:35:00     -146.275      -21.063      -11.942       74.196       69.186       30.087     5505.080     4786.678      905.233        1.659        0.560      147.784       17.957        0.015      345.254       22.653      858.038
08/19/2014  00:36:00      -86.187       53.167      -17.765       34.405       38.322       30.577     1183.694     1468.588      934.943        0.708        0.179      101.266        8.912        0.008      345.033       22.274      858.056
08/19/2014  00:37:00     -156.890      -21.334      -18.929       57.461       43.496       28.787     3301.729     1891.878      828.702        1.572        0.301      158.334       24.776        0.024      344.979       22.182      858.069
08/19/2014  00:38:00      -38.685       44.066       -5.170       69.523       98.146       39.678     4833.475     9632.570     1574.342        0.975        0.802       58.638       38.869        0.439      344.875       22.004      858.039
08/19/2014  00:39:00      -60.415       65.455        0.938       67.423       92.037       34.813     4545.892     8470.824     1211.924        1.108        0.711       89.075       18.041        0.041      344.991       22.204      858.020
08/19/2014  00:40:00      -79.145       93.295      -17.374       33.737       56.538       28.316     1138.168     3196.568      801.814        1.020        0.257      122.344       19.616        0.026      344.956       22.142      858.053
08/19/2014  00:41:00      -98.233      -26.426       -8.932       48.579       59.472       30.496     2359.934     3536.871      929.996        0.863        0.341      101.726       24.705        0.059      344.793       21.864      858.066
08/19/2014  00:42:00      -77.894       51.634       -7.111       58.686       43.769       24.885     3444.100     1915.698      619.248        0.738        0.299       93.453       29.702        0.101      344.874       22.002      858.060
08/19/2014  00:43:00      -70.616        6.891       -1.581       51.616       52.931       25.683     2664.244     2801.702      659.606        0.558        0.306       70.951       25.315        0.127      344.899       22.044      858.054
08/19/2014  00:44:00     -123.693       83.218      -19.756       63.853       48.789       32.106     4077.205     2380.403     1030.774        1.505        0.374      149.081       27.934        0.035      344.843       21.948      858.066
08/19/2014  00:45:00     -134.291       64.927      -10.203       62.318       43.336       33.120     3883.584     1878.041     1096.942        1.460        0.343      149.163       29.356        0.039      344.864       21.986      858.076
08/19/2014  00:46:00      -71.065       -0.238       -5.520       38.103       46.623       24.720     1451.860     2173.672      611.067        0.466        0.212       71.066       15.512        0.048      344.820       21.910      858.066
08/19/2014  00:47:00     -113.389        8.554      -13.227       30.154       28.564       17.394      909.290      815.888      302.540        0.757        0.101      113.711       11.975        0.011      344.942       22.119      858.056
08/19/2014  00:48:00      -96.933       11.524        0.988       53.198       48.104       32.880     2830.006     2314.014     1081.065        0.788        0.311       97.616       27.495        0.079      344.782       21.844      858.064
08/19/2014  00:49:00     -102.819       -0.206       -6.929       55.405       64.928       30.102     3069.739     4215.651      906.143        0.940        0.410      102.819       25.450        0.061      344.793       21.863      858.061
08/19/2014  00:50:00     -135.616      108.371      -30.315       41.892       99.670       30.510     1754.942     9934.045      930.849        2.183        0.631      173.597       30.461        0.031      344.841       21.945      858.069
08/19/2014  00:51:00      -86.226       14.072       -2.603       41.653       60.534       37.503     1734.960     3664.337     1406.451        0.722        0.340       87.366       25.436        0.085      344.771       21.827      858.080
08/19/2014  00:52:00      -80.487       80.649      -11.630       46.985       52.619       31.488     2207.604     2768.805      991.485        0.954        0.298      113.941       35.182        0.095      344.759       21.806      858.080
08/19/2014  00:53:00      -68.631       71.827       -7.435       55.584       53.867       21.681     3089.529     2901.645      470.071        0.819        0.323       99.345       12.532        0.016      344.799       21.874      858.065
08/19/2014  00:54:00     -122.160      141.642      -22.911       47.615       38.687       32.830     2267.203     1496.686     1077.780        2.018        0.242      187.045       28.432        0.023      344.818       21.905      858.064
08/19/2014  00:55:00     -107.250       99.820      -15.495       51.189       51.023       26.459     2620.342     2603.357      700.095        1.381        0.296      146.515       20.590        0.020      344.757       21.802      858.064
08/19/2014  00:56:00      -85.207       75.495      -16.946       51.982       37.167       27.879     2702.113     1381.400      777.212        0.905        0.243      113.841        7.211        0.004      344.757       21.804      858.060
08/19/2014  00:57:00     -100.870      130.926      -13.150       68.848       74.559       38.375     4740.095     5558.991     1472.676        1.963        0.589      165.276       45.675        0.076      344.775       21.831      858.055
08/19/2014  00:58:00     -125.558      210.472      -29.644       54.832       66.480       35.532     3006.566     4419.550     1262.543        3.481        0.434      245.078       32.795        0.018      344.799       21.869      858.051
08/19/2014  00:59:00      -72.349      160.020      -27.549       71.962       57.483       32.248     5178.539     3304.342     1039.960        2.056        0.476      175.616       34.729        0.039      344.726       21.747      858.064
08/19/2014  01:00:00      -30.124      125.182      -17.265       45.101       64.092       31.845     2034.090     4107.804     1014.074        1.201        0.358      128.756       14.902        0.013      344.705       21.713      858.058
08/19/2014  01:01:00      -50.879       49.000      -11.901       64.908       79.863       31.747     4212.985     6378.113     1007.902        0.836        0.580       70.637       22.436        0.101      344.844       21.950      858.050
08/19/2014  01:02:00      -56.333      -13.850       -8.001       25.183       35.826       17.845      634.185     1283.473      318.428        0.283        0.112       58.010       15.907        0.075      344.742       21.778      858.062
08/19/2014  01:03:00      -42.525       25.281       -1.590       25.827       35.628       16.686      667.043     1269.352      278.434        0.233        0.111       49.472       14.341        0.084      344.741       21.775      858.052
08/19/2014  01:04:00      -96.885      -15.345      -15.497       40.820       60.915       25.556     1666.256     3710.605      653.107        0.794        0.301       98.093       14.648        0.022      344.835       21.935      858.068
08/19/2014  01:05:00      -46.591       72.717      -12.842       56.736       57.471       31.566     3219.008     3302.942      996.384        0.757        0.376       86.363       15.718        0.033      344.794       21.864      858.062
08/19/2014  01:06:00      -16.213       40.883        5.343       27.998       41.405       22.809      783.877     1714.386      520.269        0.249        0.151       43.980       19.767        0.202      344.716       21.731      858.067
08/19/2014  01:07:00      -65.554       40.432      -14.752       33.536       45.922       17.509     1124.674     2108.844      306.569        0.484        0.177       77.020       18.282        0.056      344.848       21.959      858.072
08/19/2014  01:08:00      -36.113       65.330       -3.012       27.178       34.383       21.848      738.666     1182.200      477.320        0.399        0.120       74.647       18.302        0.060      344.654       21.628      858.099
08/19/2014  01:09:00      -17.661       84.373       -8.580       30.972       31.017       24.419      959.295      962.073      596.272        0.501        0.126       86.201       17.861        0.043      344.681       21.672      858.113
08/19/2014  01:10:00       28.374      114.499       -0.246       37.230       65.299       31.470     1386.042     4263.907      990.339        1.028        0.332      117.963       29.424        0.062      344.637       21.598      858.108
08/19/2014  01:11:00        0.852      241.803      -20.423       52.856       82.549       39.554     2793.805     6814.358     1564.492        3.503        0.559      241.805       42.591        0.031      344.702       21.705      858.091
08/19/2014  01:12:00      -20.683      165.269      -15.767       32.653       52.862       21.054     1066.196     2794.340      443.262        1.615        0.215      166.558       22.758        0.019      344.655       21.628      858.122
08/19/2014  01:13:00        5.672       46.372       -2.083       21.841       52.056       17.925      477.023     2709.847      321.322        0.285        0.175       46.718       21.587        0.214      344.607       21.546      858.126
08/19/2014  01:14:00       -3.572      -22.020       -0.059       24.695       26.860       14.818      609.822      721.471      219.587        0.102        0.078       22.308       16.710        0.561      344.588       21.514      858.141
08/19/2014  01:15:00      -26.215       -9.003        0.474       26.923       32.601       15.679      724.842     1062.825      245.818        0.140        0.102       27.718        9.699        0.122      344.627       21.579      858.167
08/19/2014  01:16:00      -59.958       18.324      -17.618       35.125       34.556       23.993     1233.789     1194.151      575.644        0.362        0.150       62.695       17.946        0.082      344.693       21.692      858.171
08/19/2014  01:17:00      -42.848        2.561        2.356       55.150       52.918       27.482     3041.535     2800.330      755.244        0.422        0.330       42.924       21.092        0.241      344.730       21.756      858.145
08/19/2014  01:18:00      -98.690      -28.578       -6.598       29.984       32.149       20.698      899.037     1033.556      428.414        0.648        0.118      102.745       11.284        0.012      344.737       21.768      858.149
08/19/2014  01:19:00      -85.049      -42.537       -2.264       28.417       21.033       18.970      807.535      442.407      359.873        0.533        0.080       95.094       15.821        0.028      344.781       21.843      858.146
08/19/2014  01:20:00     -102.551      -23.170       -7.862       25.779       18.293       13.773      664.536      334.642      189.688        0.615        0.059      105.136       13.892        0.017      344.764       21.815      858.146
08/19/2014  01:21:00      -50.572      -10.976       -4.637       39.396       27.039       12.725     1552.043      731.091      161.936        0.257        0.122       51.749        9.930        0.037      344.709       21.719      858.129
08/19/2014  01:22:00     -164.857      -30.744       -8.449       35.133       46.576       16.818     1234.300     2169.337      282.836        1.594        0.184      167.699       14.625        0.008      344.715       21.729      858.134
08/19/2014  01:23:00     -176.510       28.569      -19.815       61.341       41.694       25.727     3762.676     1738.414      661.875        1.926        0.308      178.807       25.656        0.021      344.756       21.799      858.128
08/19/2014  01:24:00     -110.712       33.304      -10.784       42.020       44.558       22.987     1765.658     1985.394      528.418        0.888        0.214      115.612       23.490        0.041      344.523       21.402      858.126
08/19/2014  01:25:00      -67.767       99.550      -23.101       54.903       47.597       26.991     3014.380     2265.485      728.493        1.052        0.300      120.426       24.558        0.042      344.579       21.498      858.119
08/19/2014  01:26:00      -77.003       59.522      -11.866       34.597       37.645       18.794     1196.941     1417.152      353.225        0.629        0.148       97.326       16.103        0.027      344.463       21.299      858.121
08/19/2014  01:27:00      -85.238        9.243      -11.946       27.106       29.070       22.226      734.718      845.091      493.988        0.478        0.104       85.737       17.264        0.041      344.493       21.349      858.135
08/19/2014  01:28:00      -73.955        0.020       -8.292       17.989       37.379       17.831      323.621     1397.203      317.947        0.379        0.102       73.955       13.360        0.033      344.509       21.379      858.140
08/19/2014  01:29:00      -64.215       26.989       -7.316       42.247       36.376       21.826     1784.768     1323.238      476.370        0.424        0.179       69.657       10.991        0.025      344.517       21.391      858.135
08/19/2014  01:30:00      -44.827       97.833      -10.373       69.180       55.709       34.609     4785.872     3103.522     1197.787        1.039        0.454      107.614       29.680        0.076      344.555       21.456      858.095
08/19/2014  01:31:00      -87.561       51.431      -15.969       33.100       25.918       21.481     1095.591      671.763      461.429        0.640        0.111      101.548       10.044        0.010      344.627       21.579      858.089
08/19/2014  01:32:00      -74.303      117.670      -19.359       29.957       53.476       23.139      897.434     2859.646      535.422        1.202        0.215      139.166       22.463        0.026      344.567       21.476      858.067
08/19/2014  01:33:00      -42.940       97.840      -19.012       25.742       30.866       13.885      662.651      952.710      192.802        0.679        0.090      106.848       16.079        0.023      344.520       21.396      858.044
08/19/2014  01:34:00      -62.673       81.629      -10.060       35.224       44.298       26.721     1240.759     1962.320      714.006        0.730        0.196      102.913       27.585        0.072      344.502       21.367      858.058
08/19/2014  01:35:00      -75.060       59.998      -14.515       27.583       40.359       26.288      760.831     1628.850      691.034        0.626        0.154       96.093       17.100        0.032      344.512       21.383      858.071
08/19/2014  01:36:00      -84.025      150.645      -25.004       54.193       53.858       31.961     2936.900     2900.724     1021.503        1.862        0.343      172.494       30.054        0.030      344.593       21.520      858.067
08/19/2014  01:37:00      -92.743      136.020      -23.503       43.365       47.045       30.403     1880.510     2213.193      924.362        1.634        0.251      164.629       23.915        0.021      344.545       21.438      858.062
08/19/2014  01:38:00      -45.305      130.858      -13.550       39.904       38.889       25.471     1592.308     1512.331      648.769        1.156        0.188      138.479       26.348        0.036      344.525       21.405      858.042
08/19/2014  01:39:00     -103.125      189.749      -25.772       46.798       56.973       29.040     2190.070     3245.922      843.339        2.679        0.314      215.962       30.983        0.021      344.570       21.480      858.036
08/19/2014  01:40:00      -72.792      145.202      -23.099       50.635       55.047       22.040     2563.931     3030.199      485.768        1.650        0.304      162.426       22.520        0.019      344.531       21.414      858.034
08/19/2014  01:41:00      -47.921       68.344       -8.355       41.642       44.793       23.568     1734.050     2006.402      555.453        0.567        0.215       83.471       28.522        0.117      344.500       21.363      858.043
08/19/2014  01:42:00     -101.241       76.017      -16.998       32.827       48.034       23.958     1077.594     2307.282      573.998        1.014        0.198      126.603       19.197        0.023      344.515       21.389      858.050
08/19/2014  01:43:00      -55.821       85.731      -23.968       40.416       34.369       22.801     1633.421     1181.253      519.877        0.719        0.167      102.303       21.581        0.045      344.607       21.545      858.045
08/19/2014  01:44:00      -51.437      122.415       -8.684       31.706       43.525       28.709     1005.288     1894.420      824.224        1.071        0.186      132.783       24.457        0.034      344.582       21.502      858.044
08/19/2014  01:45:00      -48.711      145.201      -16.831       26.457       42.070       26.072      699.967     1769.912      679.751        1.344        0.157      153.154       20.113        0.017      344.596       21.526      858.038
08/19/2014  01:46:00      -87.160       72.275      -18.758       25.081       24.924       17.887      629.081      621.200      319.937        0.737        0.079      113.228       10.109        0.008      344.549       21.448      858.044
08/19/2014  01:47:00     -113.881      127.598      -24.758       57.149       76.818       32.467     3266.031     5901.028     1054.115        2.004        0.511      171.027       33.652        0.039      344.595       21.524      858.041
08/19/2014  01:48:00      -80.870      177.044      -25.146       48.964       72.112       37.055     2397.508     5200.117     1373.104        2.374        0.449      194.639       30.941        0.025      344.528       21.408      858.035
08/19/2014  01:49:00      -58.308      144.972      -15.066       44.007       48.357       25.147     1936.613     2338.442      632.355        1.477        0.245      156.258       17.582        0.013      344.533       21.419      858.031
08/19/2014  01:50:00      -29.678      161.287      -21.824       50.565       41.554       25.989     2556.807     1726.729      675.440        1.616        0.248      163.994       20.801        0.016      344.568       21.478      858.034
08/19/2014  01:51:00      -82.143      144.562      -16.133       49.822       71.816       33.570     2482.206     5157.592     1126.944        1.833        0.438      166.270       30.718        0.034      344.515       21.386      858.030
08/19/2014  01:52:00     -130.783      174.042      -29.133       81.503       69.786       40.611     6642.668     4870.089     1649.248        3.070        0.658      217.704       35.713        0.027      344.466       21.301      858.032
08/19/2014  01:53:00     -153.689      137.145      -27.861       66.950       59.594       37.836     4482.346     3551.434     1431.584        2.633        0.473      205.983       31.922        0.024      344.429       21.238      858.018
08/19/2014  01:54:00     -115.340      133.318      -20.377       46.353       94.448       42.566     2148.605     8920.349     1811.825        2.218        0.644      176.287       43.548        0.061      344.399       21.188      858.002
08/19/2014  01:55:00      -99.715      166.729      -31.158       54.771       67.091       35.651     2999.826     4501.145     1271.013        2.374        0.439      194.272       33.174        0.029      344.492       21.347      858.001
08/19/2014  01:56:00     -112.050       98.552      -17.517       67.002       65.616       36.306     4489.272     4305.496     1318.162        1.634        0.506      149.224       39.410        0.070      344.493       21.350      857.992
08/19/2014  01:57:00      -53.213       77.042       -8.970       40.918       70.602       26.512     1674.309     4984.649      702.882        0.810        0.368       93.633       34.251        0.134      344.540       21.431      857.975
08/19/2014  01:58:00      -96.764       86.964      -18.853       64.540       49.583       27.450     4165.454     2458.429      753.523        1.233        0.369      130.100       33.353        0.066      344.434       21.249      857.959
08/19/2014  01:59:00      -83.618       64.400      -14.378       56.650       50.246       34.005     3209.166     2524.701     1156.357        0.912        0.345      105.543       38.218        0.131      344.454       21.282      857.964
08/19/2014  02:00:00      -81.509      -27.886       -2.058       36.458       38.870       23.649     1329.217     1510.870      559.276        0.541        0.170       86.147       19.759        0.053      344.457       21.289      857.988
08/19/2014  02:01:00      -43.089       -8.117       -6.508       32.245       23.799       12.949     1039.755      566.385      167.683        0.187        0.089       43.847       12.446        0.081      344.416       21.220      857.997
08/19/2014  02:02:00      -32.301      -18.340       12.623       29.848       29.305       19.725      890.879      858.791      389.087        0.184        0.107       37.144       11.542        0.097      344.485       21.337      857.984
08/19/2014  02:03:00      -99.748      -34.945      -15.148       39.118       40.622       30.966     1530.234     1650.129      958.888        0.777        0.207      105.692       23.997        0.052      344.614       21.557      857.974
08/19/2014  02:04:00      -43.321       -9.425        2.184       35.282       31.639       27.754     1244.820     1001.023      770.261        0.249        0.151       44.334       22.311        0.253      344.585       21.509      857.978
08/19/2014  02:05:00     -101.467      -47.454       -4.727       25.303       22.893       14.070      640.248      524.106      197.956        0.697        0.068      112.015        9.398        0.007      344.515       21.388      857.995
08/19/2014  02:06:00      -64.722      -44.484        0.728       54.170       36.795       21.694     2934.338     1353.853      470.648        0.546        0.238       78.535       22.572        0.083      344.446       21.271      858.008
08/19/2014  02:07:00      -35.822        8.165       -7.418       34.371       25.641       11.543     1181.390      657.464      133.230        0.169        0.099       36.741       13.679        0.139      344.414       21.214      858.002
08/19/2014  02:08:00        3.675       65.589       -7.945       26.759       33.937       18.879      716.067     1151.700      356.434        0.330        0.111       65.692        4.623        0.005      344.415       21.218      858.003
08/19/2014  02:09:00      -28.028       91.073      -17.336       47.015       45.573       15.982     2210.421     2076.912      255.428        0.696        0.227       95.288        9.057        0.009      344.525       21.404      858.003
08/19/2014  02:10:00      -21.638       53.658       -5.882       23.178       37.293       19.889      537.231     1390.741      395.555        0.285        0.116       57.857       14.782        0.065      344.418       21.222      858.021
08/19/2014  02:11:00      -10.111       -3.899      -11.653       19.162       15.066       13.795      367.168      226.979      190.298        0.052        0.039       10.837        7.614        0.494      344.441       21.262      858.009
08/19/2014  02:12:00        2.440       20.529       -4.097       16.620       20.345       10.817      276.239      413.908      117.010        0.063        0.040       20.673        5.676        0.075      344.502       21.367      858.002
08/19/2014  02:13:00      -50.498       29.263       -5.097       38.374       18.210       16.271     1472.529      331.603      264.743        0.275        0.103       58.364       17.124        0.086      344.503       21.367      857.995
08/19/2014  02:14:00      -72.255       -8.252       -5.122       47.084       47.240       21.700     2216.949     2231.593      470.878        0.512        0.246       72.725       27.696        0.145      344.441       21.262      858.001
08/19/2014  02:15:00       -0.889      -19.359       10.693       24.223       21.793       17.051      586.761      474.947      290.744        0.092        0.068       19.379        8.698        0.201      344.445       21.268      858.004
08/19/2014  02:16:00       58.132       26.901       34.302       36.006       28.823       30.198     1296.451      830.747      911.946        0.416        0.152       64.055       21.509        0.113      344.492       21.348      857.979
08/19/2014  02:17:00      -17.902        4.760        1.449       33.548       24.873       16.704     1125.473      618.666      279.038        0.118        0.101       18.524       15.189        0.672      344.600       21.533      857.968
08/19/2014  02:18:00      -32.638      -36.207       -0.894       45.711       33.093       20.102     2089.505     1095.126      404.085        0.298        0.179       48.747       18.183        0.139      344.572       21.486      857.978
08/19/2014  02:19:00      -16.867      -68.247       -5.304       50.555       45.228       23.341     2555.774     2045.546      544.793        0.506        0.257       70.301       11.464        0.027      344.530       21.415      858.001
08/19/2014  02:20:00       37.214       51.957       -1.281       21.813       20.808       22.948      475.814      432.966      526.626        0.276        0.072       63.909        8.483        0.018      344.839       21.943      857.956
08/19/2014  02:21:00        0.151       25.723       -6.453       23.616       26.368       14.715      557.727      695.261      216.522        0.109        0.073       25.724        3.274        0.016      344.712       21.726      857.962
08/19/2014  02:22:00      -34.629       31.201       -8.097       18.063       20.373       10.248      326.257      415.048      105.014        0.154        0.042       46.612        6.976        0.022      344.557       21.460      857.956
08/19/2014  02:23:00       -1.519       49.925        5.399       11.894       20.953       15.551      141.461      439.014      241.842        0.167        0.041       49.948       13.371        0.072      344.485       21.337      857.937
08/19/2014  02:24:00      -70.354        8.996       -7.114       47.779       36.394       19.877     2282.826     1324.533      395.113        0.454        0.200       70.927       14.898        0.044      344.415       21.217      857.964
08/19/2014  02:25:00      -63.362      -39.506        5.345       68.743       32.992       21.803     4725.583     1088.481      475.364        0.595        0.314       74.669       22.029        0.087      344.199       20.848      857.995
08/19/2014  02:26:00      -58.828      -28.495        3.211       32.202       24.238       15.750     1036.980      587.492      248.060        0.308        0.094       65.366       13.065        0.040      344.389       21.173      857.975
08/19/2014  02:27:00      -54.909       -1.100       -0.025       11.913       15.147        9.899      141.919      229.423       97.989        0.174        0.023       54.920        7.203        0.017      344.763       21.812      857.952
08/19/2014  02:28:00     -122.465        5.935       -8.569       29.508       30.834       18.556      870.722      950.763      344.331        0.864        0.108      122.609       17.201        0.020      344.983       22.189      857.950
08/19/2014  02:29:00     -161.742      -55.076       -8.553       50.706       41.305       25.382     2571.101     1706.097      644.231        1.709        0.246      170.862       17.977        0.011      344.510       21.377      857.981
08/19/2014  02:30:00     -145.159      -38.105       -4.862       45.437       31.202       24.064     2064.523      973.586      579.059        1.308        0.181      150.077       24.300        0.026      344.425       21.234      857.996
08/19/2014  02:31:00     -101.105       -7.487       -8.234       30.340       17.794       16.083      920.506      316.628      258.659        0.592        0.075      101.382       13.403        0.017      344.564       21.472      858.005
08/19/2014  02:32:00      -92.831       -6.945       -8.754       21.731       20.359       12.772      472.220      414.505      163.134        0.490        0.052       93.090        8.838        0.009      344.504       21.368      858.008
08/19/2014  02:33:00      -71.987      -23.318       -3.277       18.844       19.537       12.945      355.078      381.707      167.585        0.332        0.045       75.669       10.701        0.020      344.761       21.811      858.004
08/19/2014  02:34:00      -47.339      -16.650       -2.257       25.687       26.678       11.638      659.847      711.721      135.444        0.201        0.075       50.182        9.986        0.040      344.779       21.840      858.014
08/19/2014  02:35:00      -48.932       27.425       -6.957       26.983       14.504       10.037      728.062      210.379      100.739        0.212        0.052       56.094        7.377        0.017      344.924       22.085      858.016
08/19/2014  02:36:00      -45.095       39.258       -6.361       14.121       15.524       11.597      199.397      240.984      134.495        0.209        0.029       59.790        4.708        0.006      344.866       21.989      858.009
08/19/2014  02:37:00        4.526      -26.801        1.016       17.477       30.916       10.565      305.440      955.813      111.611        0.106        0.069       27.181       10.537        0.150      344.782       21.846      858.010
08/19/2014  02:38:00       -4.402      -38.525       -5.732       18.228       17.687        5.560      332.268      312.837       30.909        0.111        0.034       38.776        4.996        0.017      344.878       22.008      858.009
08/19/2014  02:39:00      -43.662      -31.268       -6.809       28.491       21.069       14.298      811.714      443.907      204.426        0.219        0.073       53.703       14.819        0.076      344.735       21.766      858.020
08/19/2014  02:40:00      -65.276       -5.828       -8.406       17.977       11.831        9.242      323.174      139.977       85.421        0.246        0.027       65.535        6.774        0.011      344.703       21.708      858.027
08/19/2014  02:41:00      -49.318       -9.502      -10.537       20.877       11.773       12.780      435.864      138.609      163.320        0.169        0.037       50.225        8.702        0.030      344.882       22.015      858.026
08/19/2014  02:42:00       -0.845      -39.240        2.421       15.186       34.530       12.490      230.628     1192.302      155.999        0.156        0.079       39.249       15.294        0.152      344.845       21.953      858.009
08/19/2014  02:43:00        8.069      -33.670        8.590       13.610       38.853       16.181      185.240     1509.563      261.816        0.161        0.098       34.623       18.443        0.284      344.853       21.966      857.990
08/19/2014  02:44:00       27.450       34.765       25.785       22.147       17.761       18.670      490.486      315.443      348.587        0.189        0.058       44.296       14.502        0.107      344.515       21.389      857.964
08/19/2014  02:45:00       -2.727       97.529      -22.225       37.924       28.392       13.323     1438.244      806.080      177.489        0.622        0.121       97.567       20.642        0.045      344.496       21.356      857.975
08/19/2014  02:46:00      -18.089      141.625      -15.847       28.462       30.722       23.509      810.085      943.837      552.658        1.147        0.115      142.775       19.598        0.019      344.504       21.370      857.987
08/19/2014  02:47:00       12.943       91.008      -20.749       41.504       55.575       20.194     1722.567     3088.630      407.793        0.705        0.261       91.924       21.166        0.053      344.460       21.294      857.957
08/19/2014  02:48:00     -143.848      -33.678       -8.172       94.103       63.069       30.251     8855.299     3977.698      915.097        1.782        0.687      147.738       17.990        0.015      344.260       20.953      857.989
08/19/2014  02:49:00     -191.135      -69.334       -8.203      106.430       71.754       36.834    11327.334     5148.666     1356.764        2.962        0.892      203.321       38.839        0.036      344.241       20.918      858.026
08/19/2014  02:50:00     -144.957        6.938      -10.847       64.945       38.501       24.427     4217.837     1482.342      596.675        1.374        0.315      145.123       29.166        0.040      344.462       21.298      858.013
08/19/2014  02:51:00     -144.780       16.124      -23.786       48.547       43.285       27.586     2356.846     1873.617      761.003        1.339        0.250      145.675       15.452        0.011      344.481       21.331      858.013
08/19/2014  02:52:00      -88.720        1.497      -10.146       45.502       42.613       29.841     2070.430     1815.899      890.509        0.638        0.239       88.732       29.207        0.108      344.610       21.551      857.997
08/19/2014  02:53:00      -38.428       10.330        5.851       41.619       50.828       23.117     1732.153     2583.487      534.380        0.323        0.243       39.793       26.170        0.433      344.494       21.352      858.003
08/19/2014  02:54:00      -17.561       20.935       19.182       37.437       27.788       25.778     1401.501      772.148      664.512        0.198        0.142       27.325       19.661        0.518      344.379       21.155      858.009
08/19/2014  02:55:00      -51.712      -31.864       -0.410       49.551       25.679       20.719     2455.280      659.414      429.259        0.362        0.177       60.741       24.347        0.161      344.390       21.174      857.989
08/19/2014  02:56:00     -123.052      -20.256       -4.060       43.921       41.777       21.687     1929.055     1745.344      470.321        0.986        0.207      124.708       21.256        0.029      344.409       21.208      857.978
08/19/2014  02:57:00      -23.646      -19.797        9.186       43.515       23.730       19.702     1893.592      563.095      388.158        0.194        0.142       30.839       23.647        0.588      344.409       21.208      857.977
08/19/2014  02:58:00      -61.493        4.335        8.105       59.177       25.902       24.618     3501.965      670.895      606.026        0.432        0.239       61.645       32.663        0.281      344.315       21.048      857.980
08/19/2014  02:59:00      -24.220      -12.499        0.271       44.560       25.804       14.098     1985.631      665.832      198.745        0.180        0.143       27.255       19.214        0.497      344.238       20.914      857.937
08/19/2014  03:00:00       33.148       32.542       -2.233       30.530        9.107       10.167      932.068       82.929      103.369        0.164        0.056       46.452       11.619        0.063      344.268       20.969      857.876
08/19/2014  03:01:00       10.752       31.657      -10.174       20.815       22.604       17.956      433.255      510.928      322.411        0.124        0.063       33.433       18.589        0.309      344.199       20.848      857.888
08/19/2014  03:02:00      -34.329       22.081       -7.326       30.578       18.231       12.670      935.029      332.380      160.531        0.157        0.071       40.818       14.219        0.121      344.221       20.884      857.906
08/19/2014  03:03:00        2.537       12.987        4.649       22.398       12.829       12.187      501.656      164.588      148.528        0.051        0.041       13.232        8.645        0.427      344.093       20.667      857.908
08/19/2014  03:04:00       15.776       40.471       -5.330       15.232       33.769        9.943      232.026     1140.358       98.871        0.169        0.074       43.437        9.898        0.052      344.181       20.818      857.896
08/19/2014  03:05:00      -18.148       30.421       -7.209       13.848       21.036        7.010      191.759      442.508       49.135        0.099        0.034       35.423        3.463        0.010      344.201       20.853      857.914
08/19/2014  03:06:00      -63.817      -32.654        1.047       34.684       29.538       18.286     1202.970      872.469      334.379        0.377        0.120       71.686       14.974        0.044      344.175       20.805      857.945
08/19/2014  03:07:00      -29.150      -48.940       -1.629       35.626       27.684       22.115     1269.221      766.430      489.059        0.289        0.126       56.964       20.019        0.124      344.138       20.744      857.952
08/19/2014  03:08:00      -29.151      -37.341        1.512       24.388       34.943       12.144      594.766     1221.006      147.472        0.210        0.098       47.372       10.149        0.046      344.104       20.684      857.961
08/19/2014  03:09:00      -20.777       -4.899        3.998       16.999       20.368       13.314      288.962      414.865      177.275        0.068        0.044       21.346       15.770        0.546      344.105       20.686      857.948
08/19/2014  03:10:00       13.140      -20.836       -8.936       11.161       18.567       12.327      124.563      344.733      151.949        0.065        0.031       24.633       12.871        0.273      344.098       20.677      857.926
08/19/2014  03:11:00      -16.799      -26.465       -4.331       12.769       13.748       11.796      163.049      188.995      139.142        0.075        0.025       31.346       10.878        0.120      344.205       20.857      857.938
08/19/2014  03:12:00      -14.764       -0.042        4.191       26.904       15.143       16.247      723.847      229.298      263.979        0.073        0.061       14.764       17.745        1.445      344.103       20.684      857.950
08/19/2014  03:13:00       50.364        4.828       10.678       23.592       23.578       22.917      556.603      555.915      525.201        0.216        0.082       50.595       19.132        0.143      344.132       20.733      857.932
08/19/2014  03:14:00       -1.644       13.687       19.700       50.082       31.583       23.610     2508.172      997.490      557.449        0.232        0.203       13.785       18.967        1.893      344.056       20.604      857.923
08/19/2014  03:15:00      -78.890        1.849       -3.599       36.460       35.102       22.806     1329.339     1232.125      520.120        0.466        0.154       78.912       23.989        0.092      344.202       20.854      857.934
08/19/2014  03:16:00      -33.521       76.607      -16.450       35.378       35.618       17.254     1251.602     1268.607      297.684        0.504        0.141       83.620       15.409        0.034      344.300       21.022      857.936
08/19/2014  03:17:00       -0.924       73.906      -13.123       29.774       26.772       21.655      886.497      716.714      468.925        0.385        0.104       73.912       17.853        0.058      344.200       20.849      857.914
08/19/2014  03:18:00      -14.960       89.292      -17.955       49.045       36.678       25.009     2405.389     1345.308      625.470        0.645        0.219       90.537       22.188        0.060      344.255       20.945      857.911
08/19/2014  03:19:00      -23.886      155.253      -24.674       34.530       43.174       23.227     1192.307     1863.974      539.472        1.444        0.180      157.080       23.611        0.023      344.258       20.949      857.886
08/19/2014  03:20:00       35.207       86.667       -8.776       52.877       44.144       28.572     2796.008     1948.701      816.332        0.719        0.278       93.545       26.367        0.079      344.055       20.604      857.873
08/19/2014  03:21:00       56.603       49.756       -7.175       40.768       36.082       27.464     1662.056     1301.897      754.268        0.472        0.186       75.363       18.820        0.062      343.908       20.352      857.864
08/19/2014  03:22:00      -17.674        0.932      -15.451       36.725       31.263       15.504     1348.689      977.394      240.372        0.156        0.128       17.699        8.110        0.210      343.919       20.372      857.895
08/19/2014  03:23:00      -88.989      -74.815       -2.236       41.280       56.548       29.765     1704.017     3197.720      885.951        0.965        0.289      116.260       22.746        0.038      343.927       20.383      857.924
08/19/2014  03:24:00      -41.719      -71.137        1.480       43.831       46.581       27.689     1921.145     2169.776      766.694        0.583        0.243       82.468       23.284        0.080      343.955       20.431      857.950
08/19/2014  03:25:00     -137.624     -112.330       -2.343       65.587       57.321       33.720     4301.716     3285.705     1137.008        2.014        0.436      177.647       33.688        0.036      343.916       20.364      857.967
08/19/2014  03:26:00      -90.939     -105.744       -2.349       73.111       33.752       18.232     5345.178     1139.168      332.418        1.314        0.341      139.470       18.984        0.019      344.009       20.524      857.975
08/19/2014  03:27:00      -49.537      -35.026       -1.556       21.877       22.801       14.367      478.602      519.892      206.399        0.244        0.060       60.669        5.097        0.007      344.030       20.559      857.972
08/19/2014  03:28:00     -104.412      -50.067       -1.022       77.731       35.386       18.908     6042.123     1252.185      357.515        1.053        0.383      115.795       27.171        0.055      343.952       20.426      857.995
08/19/2014  03:29:00     -114.950      -31.223        2.125       72.300       49.425       30.121     5227.347     2442.865      907.281        1.138        0.429      119.115       21.767        0.033      343.822       20.205      858.033
08/19/2014  03:30:00     -123.978      -30.113        5.738       82.736       53.054       34.826     6845.189     2814.739     1212.862        1.359        0.544      127.583       44.511        0.122      343.797       20.161      858.047
08/19/2014  03:31:00      -69.080      -28.954       11.418       39.276       41.203       23.626     1542.614     1697.658      558.169        0.477        0.190       74.903       15.871        0.045      343.745       20.072      858.024
08/19/2014  03:32:00      -89.560      -21.096       -1.072       44.880       40.414       23.656     2014.174     1633.254      559.616        0.634        0.210       92.011       23.187        0.064      343.672       19.948      858.009
08/19/2014  03:33:00     -130.853      -17.738       -9.054       49.427       43.672       19.817     2443.034     1907.206      392.696        1.113        0.237      132.050       16.791        0.016      343.662       19.930      858.015
08/19/2014  03:34:00      -85.451      -73.037        9.420       58.842       39.386       25.116     3462.361     1551.241      630.803        0.918        0.282      112.411       22.302        0.039      343.633       19.883      858.043
08/19/2014  03:35:00      -68.747      -43.967        4.022       35.861       30.158       20.352     1286.024      909.479      414.223        0.464        0.130       81.604       20.020        0.060      343.741       20.067      858.052
08/19/2014  03:36:00      -24.758      -31.236        4.080       19.464       19.715        9.081      378.851      388.666       82.461        0.123        0.042       39.858        4.305        0.012      343.924       20.378      858.025
08/19/2014  03:37:00      -58.583       18.784       -0.700       31.400       13.816       11.650      985.949      190.895      135.716        0.255        0.066       61.521       13.025        0.045      343.858       20.264      858.042
08/19/2014  03:38:00     -101.355      -50.988       -5.050       31.996       30.580       23.390     1023.760      935.139      547.091        0.770        0.125      113.458       19.961        0.031      343.693       19.984      858.084
08/19/2014  03:39:00      -31.553      -34.750        5.683       37.494       30.457       15.320     1405.794      927.625      234.704        0.240        0.128       46.938       15.820        0.114      343.699       19.995      858.095
08/19/2014  03:40:00        3.497      -11.833       10.225       12.445       26.371        8.759      154.883      695.439       76.720        0.059        0.046       12.339        6.259        0.257      343.716       20.023      858.090
08/19/2014  03:41:00       16.190        6.461        2.362        8.169        6.217        5.796       66.729       38.650       33.588        0.022        0.007       17.432        3.959        0.052      343.605       19.833      858.090
08/19/2014  03:42:00        0.145        1.320        1.242        6.008        3.878        4.415       36.096       15.036       19.495        0.004        0.004        1.328        3.416        6.612      343.670       19.942      858.112
08/19/2014  03:43:00      -11.704       -9.390       -2.218       13.338        7.703        7.296      177.898       59.334       53.231        0.026        0.015       15.006        4.686        0.098      343.796       20.161      858.121
08/19/2014  03:44:00       11.005      -11.755        2.221        6.208       13.478        6.447       38.540      181.653       41.559        0.026        0.013       16.102        6.646        0.170      343.780       20.131      858.123
08/19/2014  03:45:00      -12.083      -10.869       -0.681       12.788        9.587       10.707      163.543       91.902      114.648        0.032        0.019       16.252        8.285        0.260      343.758       20.096      858.124
08/19/2014  03:46:00      -34.867       -3.861       -0.008        8.471       10.535        5.692       71.754      110.989       32.399        0.072        0.011       35.080        4.092        0.014      343.675       19.954      858.132
08/19/2014  03:47:00       -5.353        4.318        7.106        9.209        7.847        6.209       84.813       61.581       38.554        0.014        0.009        6.877        6.278        0.833      343.527       19.701      858.144
08/19/2014  03:48:00       -7.804      -10.656        0.632       11.162        5.235        2.574      124.587       27.408        6.624        0.017        0.008       13.208        2.752        0.043      343.592       19.814      858.147
08/19/2014  03:49:00       10.603       -2.829        0.066        8.312       12.126        5.703       69.087      147.039       32.519        0.018        0.012       10.974        6.464        0.347      343.579       19.790      858.135
08/19/2014  03:50:00       11.492        6.648        0.964       18.066       23.418       14.367      326.396      548.394      206.420        0.063        0.054       13.276       18.734        1.991      343.668       19.943      858.134
08/19/2014  03:51:00       50.898       31.266       11.474       14.883       10.763       11.689      221.510      115.834      136.633        0.209        0.024       59.734       11.534        0.037      343.649       19.909      858.125
08/19/2014  03:52:00       58.691       33.660       20.638       32.119       19.988       13.207     1031.642      399.503      174.416        0.330        0.080       67.658       11.200        0.027      343.690       19.977      858.117
08/19/2014  03:53:00      -26.590      -10.745       -7.068       24.968       17.393       13.954      623.421      302.530      194.703        0.100        0.056       28.679       10.039        0.123      343.687       19.974      858.121
